sensor_id;sensor_type;location;lat;lon;timestamp;temperature;humidity
40249;DHT22;25969;49.970;11.062;2023-10-08T04:07:51;14.40;99.90
40249;DHT22;25969;49.970;11.062;2023-10-08T04:18:00;14.20;99.90
40249;DHT22;25969;49.970;11.062;2023-10-08T04:28:03;14.50;99.90
40249;DHT22;25969;49.970;11.062;2023-10-08T04:38:04;14.50;99.90
40249;DHT22;25969;49.970;11.062;2023-10-08T04:48:09;14.60;99.90
40249;DHT22;25969;49.970;11.062;2023-10-08T04:58:10;14.80;99.90
40249;DHT22;25969;49.970;11.062;2023-10-08T05:08:21;14.80;99.90
40249;DHT22;25969;49.970;11.062;2023-10-08T05:18:41;14.80;99.90
40249;DHT22;25969;49.970;11.062;2023-10-08T05:29:00;14.90;99.90
40249;DHT22;25969;49.970;11.062;2023-10-08T05:39:02;14.70;99.90
40249;DHT22;25969;49.970;11.062;2023-10-08T05:49:22;14.90;99.90
40249;DHT22;25969;49.970;11.062;2023-10-08T05:59:34;15.10;99.90
40249;DHT22;25969;49.970;11.062;2023-10-08T06:09:54;15.20;99.90
40249;DHT22;25969;49.970;11.062;2023-10-08T06:20:03;15.20;99.90
40249;DHT22;25969;49.970;11.062;2023-10-08T06:30:17;15.10;99.90
40249;DHT22;25969;49.970;11.062;2023-10-08T06:40:18;15.00;99.90
40249;DHT22;25969;49.970;11.062;2023-10-08T06:50:37;15.00;99.90
40249;DHT22;25969;49.970;11.062;2023-10-08T07:00:38;14.90;99.90
40249;DHT22;25969;49.970;11.062;2023-10-08T07:10:40;15.30;99.90
40249;DHT22;25969;49.970;11.062;2023-10-08T07:20:46;16.10;99.90
40249;DHT22;25969;49.970;11.062;2023-10-08T07:30:53;16.00;99.90
40249;DHT22;25969;49.970;11.062;2023-10-08T07:40:55;16.10;99.90
40249;DHT22;25969;49.970;11.062;2023-10-08T07:50:56;16.20;99.90
40249;DHT22;25969;49.970;11.062;2023-10-08T08:00:57;16.50;99.90
40249;DHT22;25969;49.970;11.062;2023-10-08T08:11:05;16.90;99.90
40249;DHT22;25969;49.970;11.062;2023-10-08T08:21:10;16.70;99.90
40249;DHT22;25969;49.970;11.062;2023-10-08T08:31:14;16.40;99.90
40249;DHT22;25969;49.970;11.062;2023-10-08T08:41:15;16.80;99.90
40249;DHT22;25969;49.970;11.062;2023-10-08T08:51:19;17.10;99.90
40249;DHT22;25969;49.970;11.062;2023-10-08T09:01:22;17.00;99.90
40249;DHT22;25969;49.970;11.062;2023-10-08T09:11:23;17.00;99.90
40249;DHT22;25969;49.970;11.062;2023-10-08T09:21:26;17.40;99.90
40249;DHT22;25969;49.970;11.062;2023-10-08T09:31:27;17.30;99.90
40249;DHT22;25969;49.970;11.062;2023-10-08T09:41:36;17.10;99.90
40249;DHT22;25969;49.970;11.062;2023-10-08T09:51:40;16.90;99.90
40249;DHT22;25969;49.970;11.062;2023-10-08T10:01:42;17.40;99.90
40249;DHT22;25969;49.970;11.062;2023-10-08T10:11:51;17.80;99.90
40249;DHT22;25969;49.970;11.062;2023-10-08T10:21:55;17.50;99.90
40249;DHT22;25969;49.970;11.062;2023-10-08T10:31:56;17.40;99.90
40249;DHT22;25969;49.970;11.062;2023-10-08T10:42:00;19.00;99.90
40249;DHT22;25969;49.970;11.062;2023-10-08T10:52:01;17.80;99.90
40249;DHT22;25969;49.970;11.062;2023-10-08T11:02:06;17.50;99.90
40249;DHT22;25969;49.970;11.062;2023-10-08T11:12:21;16.80;99.90
40249;DHT22;25969;49.970;11.062;2023-10-08T11:22:40;16.50;99.90
40249;DHT22;25969;49.970;11.062;2023-10-08T11:32:42;16.70;99.90
40249;DHT22;25969;49.970;11.062;2023-10-08T11:42:48;16.30;99.90
40249;DHT22;25969;49.970;11.062;2023-10-08T11:52:51;15.60;99.90
40249;DHT22;25969;49.970;11.062;2023-10-08T12:02:54;15.50;99.90
40249;DHT22;25969;49.970;11.062;2023-10-08T12:12:57;15.30;99.90
40249;DHT22;25969;49.970;11.062;2023-10-08T12:23:00;15.30;99.90
40249;DHT22;25969;49.970;11.062;2023-10-08T12:33:01;15.10;99.90
40249;DHT22;25969;49.970;11.062;2023-10-08T12:43:02;14.40;99.90
40249;DHT22;25969;49.970;11.062;2023-10-08T12:53:04;14.80;99.90
40249;DHT22;25969;49.970;11.062;2023-10-08T13:03:05;14.60;99.90
40249;DHT22;25969;49.970;11.062;2023-10-08T13:13:11;14.70;99.90
40249;DHT22;25969;49.970;11.062;2023-10-08T13:23:12;14.60;99.90
40249;DHT22;25969;49.970;11.062;2023-10-08T13:33:13;14.30;99.90
40249;DHT22;25969;49.970;11.062;2023-10-08T13:43:14;14.20;99.90
40249;DHT22;25969;49.970;11.062;2023-10-08T13:53:17;14.70;99.90
40249;DHT22;25969;49.970;11.062;2023-10-08T14:03:21;15.00;99.90
40249;DHT22;25969;49.970;11.062;2023-10-08T14:13:22;14.80;99.90
40249;DHT22;25969;49.970;11.062;2023-10-08T14:23:25;14.50;99.90
40249;DHT22;25969;49.970;11.062;2023-10-08T14:33:26;14.30;99.90
40249;DHT22;25969;49.970;11.062;2023-10-08T14:43:32;14.70;99.90
40249;DHT22;25969;49.970;11.062;2023-10-08T14:53:34;14.00;99.90
40249;DHT22;25969;49.970;11.062;2023-10-08T15:03:39;14.10;99.90
40249;DHT22;25969;49.970;11.062;2023-10-08T15:13:39;14.00;99.90
40249;DHT22;25969;49.970;11.062;2023-10-08T15:23:40;13.80;99.90
40249;DHT22;25969;49.970;11.062;2023-10-08T15:33:41;13.80;99.90
40249;DHT22;25969;49.970;11.062;2023-10-08T15:43:43;13.70;99.90
40249;DHT22;25969;49.970;11.062;2023-10-08T15:53:45;13.90;99.90
40249;DHT22;25969;49.970;11.062;2023-10-08T16:03:46;14.10;99.90
40249;DHT22;25969;49.970;11.062;2023-10-08T16:13:46;14.10;99.90
40249;DHT22;25969;49.970;11.062;2023-10-08T16:23:48;14.00;99.90
40249;DHT22;25969;49.970;11.062;2023-10-08T16:33:48;13.90;99.90
40249;DHT22;25969;49.970;11.062;2023-10-08T16:43:49;13.80;99.90
40249;DHT22;25969;49.970;11.062;2023-10-08T16:53:50;13.80;99.90
40249;DHT22;25969;49.970;11.062;2023-10-08T17:03:51;13.70;99.90
40249;DHT22;25969;49.970;11.062;2023-10-08T17:13:53;13.70;99.90
40249;DHT22;25969;49.970;11.062;2023-10-08T17:23:55;13.70;99.90
40249;DHT22;25969;49.970;11.062;2023-10-08T17:33:56;13.70;99.90
40249;DHT22;25969;49.970;11.062;2023-10-08T17:43:58;13.70;99.90
40249;DHT22;25969;49.970;11.062;2023-10-08T17:53:59;13.50;99.90
40249;DHT22;25969;49.970;11.062;2023-10-08T18:04:02;13.50;99.90
40249;DHT22;25969;49.970;11.062;2023-10-08T18:14:03;13.60;99.90
40249;DHT22;25969;49.970;11.062;2023-10-08T18:24:05;13.50;99.90
40249;DHT22;25969;49.970;11.062;2023-10-08T18:34:06;13.50;99.90
40249;DHT22;25969;49.970;11.062;2023-10-08T18:44:11;13.40;99.90
40249;DHT22;25969;49.970;11.062;2023-10-08T18:54:12;13.50;99.90
40249;DHT22;25969;49.970;11.062;2023-10-08T19:04:13;13.30;99.90
40249;DHT22;25969;49.970;11.062;2023-10-08T19:14:14;13.60;99.90
40249;DHT22;25969;49.970;11.062;2023-10-08T19:24:15;13.40;99.90
40249;DHT22;25969;49.970;11.062;2023-10-08T19:34:16;13.10;99.90
40249;DHT22;25969;49.970;11.062;2023-10-08T19:44:17;13.20;99.90
40249;DHT22;25969;49.970;11.062;2023-10-08T19:54:17;13.20;99.90
40249;DHT22;25969;49.970;11.062;2023-10-08T20:04:18;13.00;99.90
40249;DHT22;25969;49.970;11.062;2023-10-08T20:14:20;12.80;99.90
40249;DHT22;25969;49.970;11.062;2023-10-08T20:24:20;12.70;99.90
40249;DHT22;25969;49.970;11.062;2023-10-08T20:34:22;12.70;99.90
40249;DHT22;25969;49.970;11.062;2023-10-08T20:44:23;12.60;99.90
40249;DHT22;25969;49.970;11.062;2023-10-08T20:54:34;12.60;99.90
40249;DHT22;25969;49.970;11.062;2023-10-08T21:04:34;12.60;99.90
40249;DHT22;25969;49.970;11.062;2023-10-08T21:14:36;12.40;99.90
40249;DHT22;25969;49.970;11.062;2023-10-08T21:24:37;12.20;99.90
40249;DHT22;25969;49.970;11.062;2023-10-08T21:34:38;12.20;99.90
40249;DHT22;25969;49.970;11.062;2023-10-08T21:44:39;11.90;99.90
40249;DHT22;25969;49.970;11.062;2023-10-08T21:54:40;11.70;99.90
